createdAt,value
2017-11-05T00:08:47.167Z,27
2017-11-05T00:19:02.038Z,26.4
2017-11-05T00:29:16.767Z,25.7
2017-11-05T00:39:30.655Z,25.4
2017-11-05T00:49:44.780Z,25.3
2017-11-05T00:59:59.046Z,24.7
2017-11-05T01:10:12.813Z,24.1
2017-11-05T01:20:27.019Z,23.7
2017-11-05T01:30:40.860Z,23.8
2017-11-05T01:40:56.262Z,23.6
2017-11-05T01:51:11.179Z,23
2017-11-05T02:01:25.197Z,23
2017-11-05T02:11:39.576Z,23.6
2017-11-05T02:21:55.146Z,23.5
2017-11-05T02:32:09.340Z,23.9
2017-11-05T02:42:24.324Z,23.7
2017-11-05T02:52:38.842Z,23.4
2017-11-05T03:02:52.794Z,23.4
2017-11-05T03:13:06.532Z,23.2
2017-11-05T03:23:21.614Z,23.2
2017-11-05T03:33:36.699Z,23.1
2017-11-05T03:43:51.726Z,23.1
2017-11-05T03:54:05.501Z,22.9
2017-11-05T04:04:19.667Z,22.6
2017-11-05T04:14:33.527Z,22.6
2017-11-05T04:24:47.915Z,22.6
2017-11-05T04:35:02.280Z,22.6
2017-11-05T04:45:16.915Z,22.6
2017-11-05T04:55:31.878Z,22.7
2017-11-05T05:05:45.845Z,22.7
2017-11-05T05:15:59.520Z,22.8
2017-11-05T05:26:14.296Z,22.7
2017-11-05T05:36:28.105Z,22.5
2017-11-05T05:46:42.185Z,22.9
2017-11-05T05:56:56.892Z,22.9
2017-11-05T06:07:10.611Z,22.8
2017-11-05T06:17:25.845Z,22.7
2017-11-05T06:27:39.805Z,22.6
2017-11-05T06:37:55.402Z,23.2
2017-11-05T06:48:10.212Z,22.9
2017-11-05T06:58:24.866Z,23
2017-11-05T07:08:39.177Z,23.4
2017-11-05T07:18:53.658Z,23.3
2017-11-05T07:29:07.545Z,23.2
2017-11-05T07:39:22.274Z,23.6
2017-11-05T07:49:36.244Z,23.9
2017-11-05T07:59:50.699Z,24.4
2017-11-05T08:10:05.621Z,24.7
2017-11-05T08:20:20.522Z,25.7
2017-11-05T08:30:34.452Z,26.8
2017-11-05T08:40:49.249Z,27.7
2017-11-05T08:51:03.966Z,27.9
2017-11-05T09:01:19.216Z,28.9
2017-11-05T09:11:33.650Z,30.5
2017-11-05T09:21:49.254Z,34.7
2017-11-05T09:32:04.880Z,38.5
2017-11-05T09:42:19.763Z,40.8
2017-11-05T09:52:34.350Z,42.2
2017-11-05T10:02:49.832Z,40.5
2017-11-05T10:13:03.742Z,37.5
2017-11-05T10:23:18.028Z,40.1
2017-11-05T10:33:33.057Z,40.8
2017-11-05T10:43:47.114Z,43.6
2017-11-05T10:54:02.457Z,48.9
2017-11-05T11:04:18.218Z,56
2017-11-05T11:14:32.119Z,61.6
2017-11-05T11:24:47.221Z,60.6
2017-11-05T11:35:02.837Z,62.9
2017-11-05T11:45:18.110Z,62.5
2017-11-05T11:55:33.070Z,62.6
2017-11-05T12:05:47.764Z,63.2
2017-11-05T12:16:02.990Z,66
2017-11-05T12:26:18.387Z,71.9
2017-11-05T12:36:32.184Z,77.9
2017-11-05T12:46:46.272Z,77.1
2017-11-05T12:57:00.243Z,83.4
2017-11-05T13:07:15.616Z,93.4
2017-11-05T13:17:31.278Z,95.1
2017-11-05T13:27:46.328Z,92.8
2017-11-05T13:38:01.822Z,93.4
2017-11-05T13:48:15.755Z,95.4
2017-11-05T13:58:29.884Z,95.4
2017-11-05T14:08:43.860Z,95.7
2017-11-05T14:18:59.303Z,99.7
2017-11-05T14:29:14.358Z,99.6
2017-11-05T14:39:28.827Z,94.5
2017-11-05T14:49:43.783Z,96.4
2017-11-05T14:59:58.235Z,97.1
2017-11-05T15:10:13.937Z,82.5
2017-11-05T15:20:28.637Z,55.2
2017-11-05T15:30:44.410Z,44.5
2017-11-05T15:40:59.427Z,37.4
2017-11-05T15:51:14.154Z,35.2
2017-11-05T16:01:28.322Z,33.6
2017-11-05T16:11:42.457Z,33.4
2017-11-05T16:21:56.854Z,32.7
2017-11-05T16:32:11.879Z,32.1
2017-11-05T16:42:27.523Z,32.6
2017-11-05T16:52:42.031Z,33.7
2017-11-05T17:02:56.358Z,32.1
2017-11-05T17:13:12.025Z,31.5
2017-11-05T17:23:26.516Z,30.6
2017-11-05T17:33:40.996Z,30.1
2017-11-05T17:43:56.123Z,29.8
2017-11-05T17:54:10.342Z,29.8
2017-11-05T18:04:24.204Z,30
2017-11-05T18:14:38.225Z,30.1
2017-11-05T18:24:52.093Z,30.4
2017-11-05T18:35:07.056Z,29.8
2017-11-05T18:45:20.984Z,29.8
2017-11-05T18:55:35.776Z,29.6
2017-11-05T19:05:50.642Z,29.7
2017-11-05T19:16:05.299Z,29.9
2017-11-05T19:26:19.246Z,29.7
2017-11-05T19:36:33.404Z,29.4
2017-11-05T19:46:47.188Z,28.7
2017-11-05T19:57:02.229Z,28.2
2017-11-05T20:07:17.441Z,28.1
2017-11-05T20:17:32.443Z,28.1
2017-11-05T20:27:46.618Z,27.8
2017-11-05T20:38:00.960Z,27.7
2017-11-05T20:48:16.381Z,27.2
2017-11-05T20:58:30.527Z,27.3
2017-11-05T21:08:45.625Z,27.1
2017-11-05T21:18:59.982Z,27.2
2017-11-05T21:29:13.871Z,27.5
2017-11-05T21:39:28.745Z,27.7
2017-11-05T21:49:43.808Z,27
2017-11-05T21:59:59.030Z,27.1
2017-11-05T22:10:14.428Z,27.2
2017-11-05T22:20:29.313Z,27.2
2017-11-05T22:30:44.373Z,27.4
2017-11-05T22:40:58.645Z,27.1
2017-11-05T22:51:12.497Z,27.2
2017-11-05T23:01:27.168Z,27.4
2017-11-05T23:11:41.309Z,27.3
2017-11-05T23:21:55.369Z,27.3
2017-11-05T23:32:10.024Z,27.4
2017-11-05T23:42:23.716Z,27.1
2017-11-05T23:52:37.892Z,27.3
